Luis Blanco

チーフスカウト - Alvarado
20 11月 2027
土曜日
処理

性格

適応力 (8) 野心 (9) 物議 (19) 忠誠心 (2) プレッシャー耐性 (1) プロ意識 (7) スポーツマンシップ (7) 気質 (4)

プロフィール

指導スタイル 民主型
ライセンス 大陸B級
決断力 5
人材管理 7
モチベーション 7
規律 3
仕事満足度
92%
疲労度
0%
役職 チーフスカウト
給与 20.0K 週給
契約 14.03.2028

パフォーマンス

態度 良い
トレーニング効果
10%
選手育成
20%
怪我予防
15%
戦術実行
5%

最近の出来事

補強会議に出席 7日前
補強会議に出席 14日前
補強会議に出席 21日前
補強会議に出席 28日前
補強会議に出席 35日前
補強会議に出席 42日前
補強会議に出席 49日前
補強会議に出席 56日前

監視中

213
選手 クラブ 状態 能力 自信 視察済み 最終確認 最新投票
Enzo Lemos Montevideo City Torque アクティブ 101 / 79 40% 2 29.11.2026 -
Agustín Cayetano Liverpool Montevideo アクティブ 98 / 100 40% 1 28.11.2026 -
Brian Nievas Chaco For Ever アクティブ 117 / 92 40% 1 28.11.2026 -
Carlos Torres Once Caldas アクティブ 92 / 104 40% 1 28.11.2026 -
Lautaro Urtasún Iquique アクティブ 102 / 91 40% 1 28.11.2026 -
Brayan Benítez Alianza Petrolera アクティブ 89 / 83 40% 1 28.11.2026 -
Franco Troyansky Audax Italiano アクティブ 101 / 115 40% 3 27.11.2026 -
Máximo Soto Antofagasta アクティブ 88 / 78 40% 2 27.11.2026 -
Anthony Stella Artigas アクティブ 92 / 92 40% 1 26.11.2026 -
Ezequiel Soriano Olimpia アクティブ 86 / 101 40% 1 26.11.2026 -
Franco Bigo 12 de Octubre アクティブ 92 / 95 40% 1 26.11.2026 -
Santiago Ramírez Deportivo Maldonado アクティブ 92 / 98 40% 5 24.11.2026 -
Misael Sosa Godoy Cruz アクティブ 110 / 122 40% 1 24.11.2026 -
Gianfranco Trasante Progreso アクティブ 109 / 110 40% 1 24.11.2026 -
Agustín Chopitea Colon アクティブ 111 / 102 40% 1 24.11.2026 -
Norman Díaz Artigas アクティブ 93 / 83 40% 3 23.11.2026 -
Álex Perdomo Defensor Sporting アクティブ 93 / 106 40% 2 23.11.2026 -
Santiago Viera Cerrito アクティブ 95 / 116 40% 1 23.11.2026 -
Tomás Moschion Albion アクティブ 108 / 110 40% 1 23.11.2026 -
Santiago Apa All Boys アクティブ 95 / 106 40% 2 22.11.2026 -
Rodrigo Cabrera River Plate アクティブ 92 / 97 40% 3 20.11.2026 -
Agustín Rogel Nacional アクティブ 115 / 105 40% 3 20.11.2026 -
Valentín Rodríguez Penarol アクティブ 114 / 104 40% 1 19.11.2026 -
Franco Hanashiro Colegiales アクティブ 115 / 115 40% 1 19.11.2026 -
Luciano Batista Cerrito アクティブ 100 / 98 40% 1 19.11.2026 -
Brian González Atenas アクティブ 115 / 91 40% 2 18.11.2026 -
Santiago Roggero Gimnasia y Esgrima アクティブ 97 / 98 40% 2 18.11.2026 -
Alexei Dominguez Pachuca アクティブ 105 / 131 40% 1 18.11.2026 -
Ramiro Giannone Antofagasta アクティブ 90 / 99 40% 1 17.11.2026 -
Fernando Da Rosa Cesar Vallejo アクティブ 98 / 110 40% 2 15.11.2026 -
Gianluca Pugliese Güemes アクティブ 117 / 120 40% 3 15.11.2026 -
Manuel Ayala Racing アクティブ 84 / 78 40% 1 15.11.2026 -
Facundo Ardiles Estudiantes アクティブ 100 / 122 40% 1 15.11.2026 -
Federico Ortiz Artigas アクティブ 106 / 90 40% 5 14.11.2026 -
Axel Pérez Cerrito アクティブ 90 / 97 40% 2 13.11.2026 -
Thiago Calone All Boys アクティブ 96 / 103 40% 1 13.11.2026 -
Facundo Butti Cerro アクティブ 105 / 107 40% 1 13.11.2026 -
Carlos Gugenheim Almirante Brown アクティブ 104 / 118 40% 1 12.11.2026 -
Emiliano Bermúdez Oriental アクティブ 82 / 84 40% 1 12.11.2026 -
Enrique Almeida Cerro Largo アクティブ 107 / 100 40% 3 11.11.2026 -
Lucas Machado Defensor Sporting アクティブ 87 / 100 40% 2 11.11.2026 -
Sebastián Lentinelly Olimpia アクティブ 114 / 119 40% 1 11.11.2026 -
Francisco Casanova Cerrito アクティブ 103 / 92 40% 2 10.11.2026 -
Nahuel de Armas Fenix アクティブ 85 / 92 40% 1 10.11.2026 -
Esteban Glellel Quilmes アクティブ 116 / 100 40% 1 10.11.2026 -
Leandro Méndez Colon アクティブ 111 / 101 40% 1 10.11.2026 -
Dewar Victoria Millonarios アクティブ 106 / 102 40% 1 10.11.2026 -
Román Ugarriza Cerrito アクティブ 84 / 84 40% 1 09.11.2026 -
Maximiliano Ribero Central Norte アクティブ 98 / 110 40% 1 09.11.2026 -
Facundo Silvera Montevideo City Torque アクティブ 107 / 103 40% 2 08.11.2026 -
Pablo Monje Deportivo Riestra アクティブ 123 / 128 40% 1 08.11.2026 -
Bastián Yáñez O'Higgins アクティブ 104 / 124 40% 1 08.11.2026 -
Lucas Melgarejo Alianza Lima アクティブ 105 / 103 40% 1 08.11.2026 -
Misael Tarón Ferro Carril Oeste アクティブ 99 / 119 40% 2 05.11.2026 -
Santiago Sala Güemes アクティブ 97 / 120 40% 2 05.11.2026 -
Santiago Valenzuela Chaco For Ever アクティブ 123 / 95 40% 2 05.11.2026 -
Joel Torres San Luis アクティブ 101 / 93 40% 1 05.11.2026 -
Kevin Lewis Liverpool Montevideo アクティブ 103 / 97 40% 1 05.11.2026 -
Mauricio Chanampa Trujillanos アクティブ 86 / 69 40% 1 03.11.2026 -
Franco Grigera Alianza Petrolera アクティブ 74 / 82 40% 1 03.11.2026 -
Juan Sebastián Rivero Progreso アクティブ 92 / 108 40% 4 02.11.2026 -
Bruno Barja Boston River アクティブ 96 / 95 40% 1 02.11.2026 -
Enzo Vlaeminch Oriental アクティブ 85 / 103 40% 4 01.11.2026 -
Alejo Fernández O'Higgins アクティブ 82 / 95 40% 1 01.11.2026 -
Iovan Roganovich Sportivo Trinidense アクティブ 90 / 92 40% 1 01.11.2026 -
Luciano Jachfe Nueva Chicago アクティブ 130 / 120 40% 1 31.10.2026 -
Sebastián Cocimano Nueva Chicago アクティブ 123 / 104 40% 1 30.10.2026 -
Lautaro Bursich Talleres アクティブ 112 / 104 40% 1 29.10.2026 -
Federico Losas Chacarita Juniors アクティブ 99 / 100 40% 1 29.10.2026 -
Ezequiel Almirón Estudiantes アクティブ 98 / 104 40% 2 28.10.2026 -
Pedro González Cerro Largo アクティブ 116 / 105 40% 1 28.10.2026 -
Nahuel Manganelli San Martín アクティブ 120 / 128 40% 1 28.10.2026 -
Nahuel Gómez Oriental アクティブ 88 / 101 40% 1 27.10.2026 -
Diego Capdevila Cerro アクティブ 77 / 89 40% 1 25.10.2026 -
Agustín Navarro Atenas アクティブ 96 / 99 40% 1 25.10.2026 -
Néstor Álvarez Tacuarembo アクティブ 82 / 78 40% 2 24.10.2026 -
Alan Martínez Oriental アクティブ 79 / 95 40% 1 24.10.2026 -
Brian Farioli Estudiantes アクティブ 118 / 119 40% 1 24.10.2026 -
Lautaro Villegas Banfield アクティブ 123 / 126 40% 1 24.10.2026 -
Sebastián Cáceres Montevideo City Torque アクティブ 85 / 98 40% 1 23.10.2026 -
Matías Núñez Atenas アクティブ 85 / 89 40% 2 22.10.2026 -
Igor Leonardi Montevideo City Torque アクティブ 65 / 78 40% 1 22.10.2026 -
Aldo Pérez Guarani アクティブ 112 / 105 40% 3 21.10.2026 -
Martín Sarrafiore O'Higgins アクティブ 128 / 116 40% 2 21.10.2026 -
Aldair Ccorahua Sport Huancayo アクティブ 86 / 83 40% 1 21.10.2026 -
Santiago Costa Albion アクティブ 110 / 110 40% 1 20.10.2026 -
Sebastián Giraldo Depor アクティブ 81 / 75 40% 1 20.10.2026 -
Santiago Cubides Jaguares アクティブ 102 / 95 40% 2 18.10.2026 -
Sebastián Jaume Albion アクティブ 92 / 109 40% 1 18.10.2026 -
Lisandro Cabrera Maipú アクティブ 124 / 124 40% 1 16.10.2026 -
Nahuel Pezzini Arsenal アクティブ 102 / 118 40% 1 15.10.2026 -
Luca Franco Arsenal アクティブ 121 / 120 40% 1 14.10.2026 -
Franco Déboli Audax Italiano アクティブ 107 / 98 40% 2 13.10.2026 -
Juan Quintana Montevideo City Torque アクティブ 95 / 110 40% 1 13.10.2026 -
Santiago Benítez Wanderers アクティブ 96 / 97 40% 1 13.10.2026 -
Bruno Hernández Cerro Largo アクティブ 79 / 95 40% 2 12.10.2026 -
Franco Ayunta Temperley アクティブ 98 / 121 40% 1 12.10.2026 -
Lucas Meuli Unión de Santa Fe アクティブ 107 / 96 40% 1 12.10.2026 -
José Febres Trujillanos アクティブ 84 / 83 40% 1 12.10.2026 -
Julián Vila Arsenal アクティブ 92 / 117 40% 1 11.10.2026 -
Thomas Ortega Quilmes アクティブ 125 / 126 40% 1 11.10.2026 -
Alejandro Amaya Patriotas アクティブ 94 / 91 40% 1 11.10.2026 -
Adriano Freitas Deportivo Maldonado アクティブ 98 / 112 40% 1 11.10.2026 -
Richard Torales Guarani アクティブ 112 / 108 40% 2 09.10.2026 -
Nahuel Soria Oriental アクティブ 115 / 91 40% 2 09.10.2026 -
Julián Pou Montevideo City Torque アクティブ 84 / 115 40% 1 09.10.2026 -
Ismael Cortez Gimnasia y Esgrima アクティブ 127 / 109 40% 1 09.10.2026 -
Mariano Ramos Guarani アクティブ 101 / 102 40% 1 09.10.2026 -
Owen Falconis Cerrito アクティブ 112 / 105 40% 2 07.10.2026 -
Simón Bentancur Rentistas アクティブ 94 / 84 40% 1 07.10.2026 -
Iván Moreno Leon アクティブ 86 / 101 40% 1 07.10.2026 -
Enzo Cabrera Danubio アクティブ 102 / 122 40% 2 06.10.2026 -
Mateo Jara Sportivo Luqueno アクティブ 80 / 85 40% 2 06.10.2026 -
Juan Yangali San Telmo アクティブ 113 / 105 40% 1 06.10.2026 -
Lucas Arzamendia Atenas アクティブ 85 / 87 40% 2 05.10.2026 -
Nahuel Sena Cerro アクティブ 103 / 110 40% 2 05.10.2026 -
Augusto Gallo Fenix アクティブ 98 / 109 40% 2 05.10.2026 -
Bruno Scorza La Luz アクティブ 79 / 93 40% 1 05.10.2026 -
Hebert Vergara Liverpool Montevideo アクティブ 100 / 99 40% 1 04.10.2026 -
Franco García Ferro Carril Oeste アクティブ 95 / 119 40% 1 04.10.2026 -
Kevin Alaniz Rampla Juniors アクティブ 90 / 88 40% 1 03.10.2026 -
Facundo Muñoa Boston River アクティブ 96 / 118 40% 1 03.10.2026 -
Nelson Gauto Sportivo Trinidense アクティブ 113 / 105 40% 1 02.10.2026 -
Miguel Silva Carabobo アクティブ 100 / 98 40% 2 30.09.2026 -
Leonardo Olavarría Uruguay Montevideo アクティブ 103 / 114 40% 1 30.09.2026 -
Raúl Lozano Quilmes アクティブ 119 / 130 40% 1 30.09.2026 -
Juan Pablo Rial San Telmo アクティブ 85 / 101 40% 1 30.09.2026 -
Juan Moreno La Luz アクティブ 100 / 122 40% 1 29.09.2026 -
Reynaldo Fontalvo Real Cartagena アクティブ 90 / 91 40% 1 29.09.2026 -
Guillermo Borthagaray Wanderers アクティブ 89 / 95 40% 1 27.09.2026 -
Lucas González Nacional アクティブ 118 / 104 40% 3 26.09.2026 -
Santiago Homenchenko Queretaro アクティブ 106 / 127 40% 2 26.09.2026 -
Matías Núñez Carabobo アクティブ 87 / 102 40% 1 25.09.2026 -
Gabriel Chocobar Oriental アクティブ 87 / 100 40% 1 25.09.2026 -
Franco Pérez Boston River アクティブ 118 / 101 40% 1 22.09.2026 -
Jáder Valencia Deportes Tolima アクティブ 122 / 113 40% 2 21.09.2026 -
Franco Fagúndez Estudiantes アクティブ 123 / 128 40% 2 20.09.2026 -
Emanuel Cecchini Juventud アクティブ 107 / 120 40% 1 20.09.2026 -
Santiago Noreña Envigado アクティブ 100 / 116 40% 1 20.09.2026 -
César Carrizo Trujillanos アクティブ 85 / 99 40% 2 19.09.2026 -
Hugo Gaona Sportivo Luqueno アクティブ 70 / 100 40% 1 19.09.2026 -
Nicolás Molina Temperley アクティブ 92 / 119 40% 1 19.09.2026 -
Maicol Ferreira Danubio アクティブ 120 / 103 40% 2 18.09.2026 -
Marco Espíndola Alianza Petrolera アクティブ 100 / 104 40% 1 17.09.2026 -
Alex Payares Patriotas アクティブ 80 / 95 40% 1 16.09.2026 -
Gastón Vega Cerro Largo アクティブ 61 / 70 40% 1 15.09.2026 -
Duván Mósquera Aguilas Doradas アクティブ 98 / 112 40% 2 14.09.2026 -
Rodrigo Schlegel Atlas アクティブ 107 / 88 40% 1 14.09.2026 -
Rodrigo Trejo Juventud アクティブ 80 / 89 40% 3 13.09.2026 -
Marcos Paolini Progreso アクティブ 86 / 87 40% 1 12.09.2026 -
Yefrín Castillo Deportivo Pasto アクティブ 103 / 90 40% 1 12.09.2026 -
Juan González River Plate アクティブ 81 / 75 40% 1 12.09.2026 -
Michel Silveira Rentistas アクティブ 79 / 98 40% 1 10.09.2026 -
Franco Martínez Artigas アクティブ 94 / 95 40% 1 10.09.2026 -
Andrés Álvarez Aguilas Doradas アクティブ 104 / 91 40% 1 10.09.2026 -
Luciano Arriagada Huachipato アクティブ 114 / 90 40% 1 09.09.2026 -
Máximo Alonso Central Espanol アクティブ 92 / 112 40% 1 09.09.2026 -
Juan Millán Danubio アクティブ 94 / 94 40% 1 09.09.2026 -
Orles Aragón Tigres アクティブ 102 / 89 40% 1 08.09.2026 -
Junior Paredes Trujillanos アクティブ 98 / 95 40% 3 07.09.2026 -
Nicolás Kozlovsky Oriental アクティブ 98 / 97 40% 1 07.09.2026 -
Joshuan Berríos Carabobo アクティブ 114 / 89 40% 2 06.09.2026 -
Diego Méndez Tacuarembo アクティブ 98 / 102 40% 2 05.09.2026 -
Cristian Lima Uruguay Montevideo アクティブ 89 / 96 40% 2 04.09.2026 -
Rodrigo Muníz Uruguay Montevideo アクティブ 78 / 95 40% 1 04.09.2026 -
Alexis Domínguez Chacarita Juniors アクティブ 126 / 127 40% 1 03.09.2026 -
Emiliano García Uruguay Montevideo アクティブ 100 / 89 40% 1 01.09.2026 -
Juan Camilo Loaiza Llaneros アクティブ 92 / 108 40% 2 31.08.2026 -
Álex Segura Real Santander アクティブ 80 / 83 40% 1 30.08.2026 -
Joaquín Trasante Danubio アクティブ 96 / 111 40% 1 30.08.2026 -
Eduardo Agüero Montevideo City Torque アクティブ 104 / 98 40% 1 30.08.2026 -
Diego Corral Universidad Catolica アクティブ 71 / 90 40% 1 29.08.2026 -
Christian Franco Oriental アクティブ 101 / 99 40% 1 28.08.2026 -
Facundo Briñón Atenas アクティブ 86 / 89 40% 1 27.08.2026 -
Alan Acevedo Fenix アクティブ 103 / 104 40% 1 27.08.2026 -
Marcelo Olivera Estudiantes アクティブ 121 / 93 40% 1 27.08.2026 -
Williams Barlasina Fortaleza CEIF アクティブ 118 / 101 40% 2 26.08.2026 -
Francisco Galván Deportivo Municipal アクティブ 122 / 101 40% 3 25.08.2026 -
José Luis Caicedo Barranquilla アクティブ 125 / 133 40% 1 24.08.2026 -
Roameth Romaña Llaneros アクティブ 107 / 110 40% 2 23.08.2026 -
Felipe Ordoñez Deportivo Pasto アクティブ 94 / 86 40% 1 23.08.2026 -
Facundo Pérez Juventud アクティブ 102 / 112 40% 1 22.08.2026 -
Ángel Maciel Tacuarembo アクティブ 101 / 105 40% 1 21.08.2026 -
Ángel Espínola Sportivo Luqueno アクティブ 104 / 89 40% 1 21.08.2026 -
Luciano Aberasteguy Deportivo Maldonado アクティブ 84 / 87 40% 1 20.08.2026 -
Sergio Carrasco Cobresal アクティブ 70 / 89 40% 1 19.08.2026 -
Lukas González Cerro Largo アクティブ 99 / 76 40% 1 18.08.2026 -
Rafael Hornos Liverpool Montevideo アクティブ 101 / 90 40% 1 18.08.2026 -
Tobías Córdoba Boa アクティブ 58 / 76 40% 1 17.08.2026 -
Martín Álvarez Tristán Suárez アクティブ 115 / 106 40% 1 16.08.2026 -
Alejandro Oñate Depor アクティブ 94 / 97 40% 1 15.08.2026 -
Yeferson Moreno Barranquilla アクティブ 120 / 118 40% 1 15.08.2026 -
Jorge Herrera Valledupar アクティブ 103 / 94 40% 1 14.08.2026 -
José Hernández Queretaro アクティブ 113 / 128 40% 1 14.08.2026 -
Miguel Hurtado Valledupar アクティブ 102 / 113 40% 1 14.08.2026 -
Fabián Ángel Junior アクティブ 98 / 124 40% 1 13.08.2026 -
Franklin Mosquera Jaguares アクティブ 107 / 99 40% 1 13.08.2026 -
Yulián Montaño Depor アクティブ 91 / 77 40% 1 13.08.2026 -
Lucas Acosta 12 de Octubre アクティブ 96 / 97 40% 1 12.08.2026 -
Yamil García Rampla Juniors アクティブ 86 / 84 40% 1 10.08.2026 -
Lautaro Maldonado Instituto アクティブ 116 / 102 40% 1 10.08.2026 -
Alejandro Aguilar Bogota アクティブ 105 / 111 40% 1 10.08.2026 -
Francisco Ginella Albion アクティブ 118 / 108 40% 1 07.08.2026 -
Jhonier Blanco Fortaleza CEIF アクティブ 116 / 118 40% 1 06.08.2026 -
Jeremías Silveira Fenix アクティブ 108 / 99 40% 2 06.08.2026 -
Pablo da Silveira Cerro アクティブ 71 / 101 40% 1 05.08.2026 -
Fernando Camarda Central Espanol アクティブ 81 / 102 40% 1 05.08.2026 -
Diego González Santos Laguna アクティブ 121 / 104 40% 1 04.08.2026 -
Jairo O'Neill Boston River アクティブ 82 / 100 40% 1 03.08.2026 -
Tomás Rayer Sportivo Trinidense アクティブ 114 / 95 40% 1 02.08.2026 -
Mateo Ayres Cerrito アクティブ 111 / 97 40% 1 02.08.2026 -
Lucas Verza Olimpia アクティブ 122 / 105 40% 1 02.08.2026 -
Juan Díaz Universidad Catolica アクティブ 97 / 105 40% 1 01.08.2026 -